KINJ

Hillsboro Municipal Airport

Hillsboro, Texas, USA
METAR KINJ 231455Z AUTO 18006KT 10SM SCT017 26/22 A3007 RMK AO2 T02610223
Observed Flight Rules
May-23 @ 14:55 UTC (14 minutes ago) Visual Flight Rules
Wind Visibility Clouds
180° at 6 knots 10 miles
  • Scattered at 1,700' AGL
Temperatures Readings
Current 26°C / 79°F
Dewpoint 22°C / 72°F
Humidity 79%
Altimeter 30.07" Hg
Pressure 1018 hPa
Elevation 209
METAR KINJ 231455Z AUTO 18006KT 10SM SCT017 26/22 A3007 RMK AO2 T02610223
Observed Flight Rules
May-23 @ 14:55 UTC
(14 minutes ago)
VFR
Wind Visibility
180° at 6 knots 10 miles
Clouds
  • Scattered at 1,700' AGL
Temperature Dewpoint
26°C / 79°F 22°C / 72°F
Humidity Altimeter Pressure
79% 30.07" Hg 1018 hPa